Polis 9950 — SFC7700 — position and weather

sailwx.info

Track history (hours):
 
Tides and Currents Weather Stations Pressure Air Temp Water Temp Dewpoint Dewpoint Depression Visibility Wind Speed Wind Dir Waves Ship Positions

Polis 9950

Last reported at 2016-May-21 11:27 UTC. Time now 2016-Jun-30 14:15 UTC.
Position N 59°20' E 018°12'.
Warning: this ship's position is 40 days out of date.

Length 16 m.

Type: Law enforcement. MMSI: 265565600.

Date/timePositionNaut miles runAvg speedWind from/ knotsBaromVisibWave heightAir tempDewpointWater temp
2016-May-21 11:27N 59°20' E 018°12'3 0.2
2016-May-20 19:25N 59°21' E 018°07'0 0.1
2016-May-20 16:28N 59°21' E 018°07'3 2.6
2016-May-20 15:30N 59°20' E 018°11'2 0.1
2016-May-19 18:24N 59°19' E 018°07'4 1.5
2016-May-19 15:34N 59°23' E 018°05'4 2.0
2016-May-19 13:20N 59°19' E 018°07'4 5.0
2016-May-19 12:33N 59°19' E 017°59'1110.6
2016-May-19 11:31N 59°28' E 017°48'10 5.1
2016-May-19 09:31N 59°19' E 017°56'7 0.5
2016-May-18 21:13N 59°19' E 018°10'1 0.5
2016-May-18 18:26N 59°19' E 018°07'2 0.4
2016-May-18 12:30N 59°20' E 018°12'3 0.5
2016-May-18 07:31N 59°19' E 018°06'0 0.0
2016-May-17 20:08N 59°19' E 018°07'3 4.9
2016-May-17 19:33N 59°19' E 018°01'1716.9
2016-May-17 18:33N 59°25' E 017°30'16 7.9
2016-May-17 16:33N 59°20' E 017°60'4 0.1
2016-May-16 11:23N 59°19' E 018°07'0 0.0
2016-May-15 03:08N 59°19' E 018°06'1 1.9
2016-May-15 02:31N 59°20' E 018°04'0 0.0
2016-May-15 01:33N 59°20' E 018°04'0 0.0
2016-May-15 00:24N 59°20' E 018°04'0 0.0
2016-May-14 23:32N 59°20' E 018°04'0 0.0
2016-May-14 22:33N 59°20' E 018°04'0 0.1
2016-May-14 21:32N 59°20' E 018°05'0 0.1
2016-May-14 20:33N 59°20' E 018°05'0 0.0
2016-May-14 19:33N 59°20' E 018°04'1 0.3
2016-May-14 15:11N 59°19' E 018°07'3 4.8
2016-May-14 14:33N 59°19' E 018°01'1 0.8
2016-May-14 13:33N 59°19' E 018°02'0 0.1
2016-May-14 12:33N 59°19' E 018°02'0 0.0
2016-May-14 11:33N 59°19' E 018°02'0 0.0
2016-May-14 10:33N 59°19' E 018°02'0 0.0
2016-May-14 09:33N 59°19' E 018°02'1 0.7
2016-May-14 08:33N 59°19' E 018°01'3 0.1
2016-May-12 07:33N 59°19' E 018°06'2 0.5
2016-May-12 02:33N 59°20' E 018°10'1 0.1
2016-May-11 21:15N 59°20' E 018°12'  
Track history (hours):
 
Tides and Currents Weather Stations Pressure Air Temp Water Temp Dewpoint Dewpoint Depression Visibility Wind Speed Wind Dir Waves Ship Positions

Polis 9950

Last reported at 2016-May-21 11:27 UTC. Time now 2016-Jun-30 14:15 UTC.
Position N 59°20' E 018°12'.
Warning: this ship's position is 40 days out of date.

Length 16 m.

Type: Law enforcement. MMSI: 265565600.

Date/timePositionNaut miles runAvg speedWind from/ knotsBaromVisibWave heightAir tempDewpointWater temp
2016-May-21 11:27N 59°20' E 018°12'3 0.2
2016-May-20 19:25N 59°21' E 018°07'0 0.1
2016-May-20 16:28N 59°21' E 018°07'3 2.6
2016-May-20 15:30N 59°20' E 018°11'2 0.1
2016-May-19 18:24N 59°19' E 018°07'4 1.5
2016-May-19 15:34N 59°23' E 018°05'4 2.0
2016-May-19 13:20N 59°19' E 018°07'4 5.0
2016-May-19 12:33N 59°19' E 017°59'1110.6
2016-May-19 11:31N 59°28' E 017°48'10 5.1
2016-May-19 09:31N 59°19' E 017°56'7 0.5
2016-May-18 21:13N 59°19' E 018°10'1 0.5
2016-May-18 18:26N 59°19' E 018°07'2 0.4
2016-May-18 12:30N 59°20' E 018°12'3 0.5
2016-May-18 07:31N 59°19' E 018°06'0 0.0
2016-May-17 20:08N 59°19' E 018°07'3 4.9
2016-May-17 19:33N 59°19' E 018°01'1716.9
2016-May-17 18:33N 59°25' E 017°30'16 7.9
2016-May-17 16:33N 59°20' E 017°60'4 0.1
2016-May-16 11:23N 59°19' E 018°07'0 0.0
2016-May-15 03:08N 59°19' E 018°06'1 1.9
2016-May-15 02:31N 59°20' E 018°04'0 0.0
2016-May-15 01:33N 59°20' E 018°04'0 0.0
2016-May-15 00:24N 59°20' E 018°04'0 0.0
2016-May-14 23:32N 59°20' E 018°04'0 0.0
2016-May-14 22:33N 59°20' E 018°04'0 0.1
2016-May-14 21:32N 59°20' E 018°05'0 0.1
2016-May-14 20:33N 59°20' E 018°05'0 0.0
2016-May-14 19:33N 59°20' E 018°04'1 0.3
2016-May-14 15:11N 59°19' E 018°07'3 4.8
2016-May-14 14:33N 59°19' E 018°01'1 0.8
2016-May-14 13:33N 59°19' E 018°02'0 0.1
2016-May-14 12:33N 59°19' E 018°02'0 0.0
2016-May-14 11:33N 59°19' E 018°02'0 0.0
2016-May-14 10:33N 59°19' E 018°02'0 0.0
2016-May-14 09:33N 59°19' E 018°02'1 0.7
2016-May-14 08:33N 59°19' E 018°01'3 0.1
2016-May-12 07:33N 59°19' E 018°06'2 0.5
2016-May-12 02:33N 59°20' E 018°10'1 0.1
2016-May-11 21:15N 59°20' E 018°12'  

Dump ship's entire track history